Time;durP1;ratioP1;P1;durP2;ratioP2;P2;SDS_P1;SDS_P2;PMS_P1;PMS_P2;Temp;Humidity;BMP_temperature;BMP_pressure;BME280_temperature;BME280_humidity;BME280_pressure;Samples;Min_cycle;Max_cycle;Signal;HPM_P1;HPM_P2
2022/02/05 00:02:23;;;;;;;0.20;0.10;;;;;;;4.95;94.33;100445.59;5035338;28;20886;-52
2022/02/05 00:04:50;;;;;;;0.20;0.10;;;;;;;4.95;93.64;100450.00;5034174;28;20881;-52
2022/02/05 00:07:17;;;;;;;0.20;0.10;;;;;;;4.99;93.48;100460.50;5034379;28;20488;-52
2022/02/05 00:44:41;;;;;;;0.20;0.10;;;;;;;4.43;97.72;100503.63;5034208;28;20475;-52
2022/02/05 00:47:08;;;;;;;0.20;0.10;;;;;;;4.44;97.06;100515.91;5034104;28;20482;-51
2022/02/05 00:49:35;;;;;;;0.20;0.10;;;;;;;4.37;96.96;100527.28;5034138;28;20555;-52
2022/02/05 00:52:09;;;;;;;0.20;0.10;;;;;;;4.40;97.82;100519.41;5028666;28;20518;-51
2022/02/05 00:54:36;;;;;;;0.30;0.20;;;;;;;4.41;96.75;100526.44;5033888;28;20479;-52
2022/02/05 00:59:32;;;;;;;0.20;0.10;;;;;;;4.58;97.93;100522.91;5033892;28;20479;-51
2022/02/05 01:01:58;;;;;;;0.20;0.10;;;;;;;4.54;98.16;100519.41;5033224;28;20510;-52
2022/02/05 01:04:25;;;;;;;0.20;0.10;;;;;;;4.55;97.35;100529.06;5033353;28;20534;-52
2022/02/05 01:06:52;;;;;;;0.20;0.10;;;;;;;4.55;97.23;100528.19;5033326;28;20478;-52
2022/02/05 01:09:24;;;;;;;0.20;0.10;;;;;;;4.62;96.55;100527.28;5033463;28;20486;-52
2022/02/05 01:11:52;;;;;;;0.20;0.10;;;;;;;4.61;96.54;100534.31;5033445;28;20526;-52
2022/02/05 01:14:24;;;;;;;0.20;0.10;;;;;;;4.71;96.64;100528.16;5033371;28;20873;-51
2022/02/05 01:16:59;;;;;;;0.20;0.10;;;;;;;4.66;97.50;100534.28;5033149;28;20476;-52
2022/02/05 01:21:56;;;;;;;0.20;0.20;;;;;;;4.90;97.44;100541.28;5015985;28;20509;-52
2022/02/05 01:24:23;;;;;;;0.20;0.10;;;;;;;4.75;96.44;100537.81;5032906;28;20505;-52
2022/02/05 01:27:01;;;;;;;0.20;0.20;;;;;;;4.70;96.75;100546.59;5033223;28;20908;-52
2022/02/05 01:29:42;;;;;;;0.20;0.10;;;;;;;4.65;96.97;100553.59;5017887;28;20959;-52
2022/02/05 01:32:15;;;;;;;0.20;0.10;;;;;;;4.34;98.59;100553.59;5016903;28;20530;-52
2022/02/05 01:34:52;;;;;;;0.20;0.10;;;;;;;4.59;97.65;100551.88;5033026;28;20912;-52
2022/02/05 01:54:12;;;;;;;0.20;0.10;;;;;;;3.82;100.00;100577.16;5033288;28;20483;-51
2022/02/05 01:56:48;;;;;;;0.20;0.20;;;;;;;3.66;100.00;100582.34;5033038;28;20479;-52
2022/02/05 02:10:53;;;;;;;0.20;0.10;;;;;;;3.50;100.00;100586.66;5000042;28;20913;-52
2022/02/05 02:19:02;;;;;;;0.20;0.10;;;;;;;3.03;100.00;100608.28;4996472;28;21020;-52
2022/02/05 02:21:39;;;;;;;0.20;0.10;;;;;;;2.87;100.00;100607.28;4997223;28;20496;-52
2022/02/05 02:24:15;;;;;;;0.20;0.10;;;;;;;3.00;100.00;100612.63;5001555;28;20446;-51
2022/02/05 02:26:58;;;;;;;0.20;0.10;;;;;;;2.91;100.00;100618.69;5006551;28;20493;-51
2022/02/05 02:29:38;;;;;;;0.20;0.10;;;;;;;2.74;100.00;100610.69;5008192;28;20483;-52
2022/02/05 02:32:06;;;;;;;0.20;0.10;;;;;;;3.02;100.00;100609.16;5001763;28;20571;-51
2022/02/05 02:34:38;;;;;;;0.20;0.10;;;;;;;2.95;100.00;100615.22;5006406;28;20512;-52
2022/02/05 02:37:11;;;;;;;0.20;0.10;;;;;;;3.61;100.00;100621.78;5001976;28;20480;-52
2022/02/05 02:40:28;;;;;;;0.20;0.10;;;;;;;3.36;100.00;100619.88;4999982;28;20989;-52
2022/02/05 02:42:25;;;;;;;0.20;0.10;;;;;;;3.14;100.00;100621.47;4996247;28;20460;-52
2022/02/05 02:44:52;;;;;;;0.20;0.10;;;;;;;3.22;100.00;100633.81;5004841;28;21142;-52
2022/02/05 02:47:20;;;;;;;0.20;0.10;;;;;;;3.24;100.00;100626.81;4999852;28;20448;-52
2022/02/05 02:50:02;;;;;;;0.20;0.10;;;;;;;3.33;100.00;100626.00;5006789;28;20484;-52
2022/02/05 02:58:04;;;;;;;0.20;0.10;;;;;;;3.00;100.00;100634.50;5007600;28;20533;-52
2022/02/05 03:00:31;;;;;;;0.20;0.20;;;;;;;3.13;100.00;100644.22;5003312;28;21069;-52
2022/02/05 03:02:58;;;;;;;0.20;0.10;;;;;;;2.97;100.00;100638.00;5004827;28;20488;-52
2022/02/05 03:05:25;;;;;;;0.20;0.10;;;;;;;2.82;100.00;100631.75;5009671;28;20480;-52
2022/02/05 03:07:51;;;;;;;0.20;0.10;;;;;;;2.81;100.00;100640.50;5008121;28;20863;-52
2022/02/05 03:10:18;;;;;;;0.20;0.20;;;;;;;2.59;100.00;100636.78;5002541;28;20551;-51
2022/02/05 03:12:45;;;;;;;0.20;0.20;;;;;;;3.01;100.00;100652.00;5004618;28;20529;-52
2022/02/05 03:15:14;;;;;;;0.20;0.20;;;;;;;3.25;100.00;100651.31;5009685;28;20484;-52
2022/02/05 03:17:53;;;;;;;0.20;0.10;;;;;;;3.24;100.00;100666.19;5008572;28;20492;-52
2022/02/05 03:20:20;;;;;;;0.20;0.10;;;;;;;3.38;100.00;100663.66;4996395;28;20469;-52
2022/02/05 03:22:46;;;;;;;0.20;0.10;;;;;;;3.48;100.00;100668.13;5009481;28;20859;-52
2022/02/05 03:25:13;;;;;;;0.20;0.10;;;;;;;3.32;100.00;100674.16;4996309;28;20540;-52
2022/02/05 03:27:40;;;;;;;0.20;0.10;;;;;;;3.47;100.00;100676.00;5009103;28;20479;-51
2022/02/05 03:30:07;;;;;;;0.20;0.10;;;;;;;3.33;100.00;100694.31;5008805;28;20489;-51
2022/02/05 03:32:33;;;;;;;0.20;0.20;;;;;;;3.17;100.00;100693.31;5002166;28;20489;-52
2022/02/05 03:35:00;;;;;;;0.20;0.10;;;;;;;3.23;100.00;100689.84;5007218;28;20504;-51
2022/02/05 03:37:26;;;;;;;0.20;0.10;;;;;;;3.30;100.00;100698.66;4998023;28;20536;-52
2022/02/05 03:39:53;;;;;;;0.20;0.10;;;;;;;3.33;100.00;100694.31;5007033;28;20484;-51
2022/02/05 03:42:20;;;;;;;0.20;0.20;;;;;;;3.33;100.00;100696.94;5009129;28;20479;-52
2022/02/05 03:44:47;;;;;;;0.20;0.10;;;;;;;3.36;100.00;100703.94;5004740;28;20487;-52
2022/02/05 03:47:13;;;;;;;0.20;0.20;;;;;;;3.39;100.00;100704.84;5002168;28;20525;-52
2022/02/05 03:49:41;;;;;;;0.20;0.10;;;;;;;3.37;100.00;100709.22;5006467;28;20449;-53
2022/02/05 03:52:08;;;;;;;0.20;0.10;;;;;;;3.49;100.00;100709.28;5008425;28;20539;-51
2022/02/05 03:54:35;;;;;;;0.20;0.10;;;;;;;3.49;100.00;100714.56;4995948;28;20484;-52
2022/02/05 03:57:02;;;;;;;0.20;0.10;;;;;;;3.80;100.00;100707.72;5008014;28;20483;-52
2022/02/05 03:59:28;;;;;;;0.20;0.10;;;;;;;3.80;100.00;100706.84;5004698;28;20479;-52
2022/02/05 04:01:55;;;;;;;0.30;0.20;;;;;;;3.80;100.00;100710.34;5001921;28;20497;-52
2022/02/05 04:04:23;;;;;;;0.20;0.10;;;;;;;3.67;100.00;100716.41;5005771;28;20496;-52
2022/02/05 04:06:50;;;;;;;0.20;0.17;;;;;;;3.47;100.00;100710.16;5008481;28;20540;-52
2022/02/05 04:09:22;;;;;;;0.20;0.10;;;;;;;3.56;100.00;100719.00;5004980;28;20535;-51
2022/02/05 04:17:07;;;;;;;0.20;0.10;;;;;;;3.28;100.00;100727.50;4995308;28;20541;-57
2022/02/05 04:19:33;;;;;;;0.20;0.10;;;;;;;3.59;100.00;100731.28;5008263;28;20506;-51
2022/02/05 04:22:00;;;;;;;0.20;0.10;;;;;;;3.58;100.00;100733.91;5003089;28;20551;-51
2022/02/05 04:24:27;;;;;;;0.20;0.10;;;;;;;3.68;100.00;100738.31;5000603;28;20885;-52
2022/02/05 04:26:54;;;;;;;0.20;0.10;;;;;;;3.71;100.00;100741.88;5002958;28;20570;-51
2022/02/05 04:29:21;;;;;;;0.20;0.17;;;;;;;3.87;100.00;100742.84;5006674;28;20535;-52
2022/02/05 04:31:47;;;;;;;0.20;0.10;;;;;;;3.78;100.00;100743.66;5014595;28;20916;-51
2022/02/05 04:34:14;;;;;;;0.20;0.20;;;;;;;3.98;100.00;100737.66;5001523;28;20450;-51
2022/02/05 04:36:41;;;;;;;0.20;0.10;;;;;;;3.94;100.00;100739.34;5011408;28;20488;-52
2022/02/05 04:39:12;;;;;;;1.37;1.37;;;;;;;3.91;100.00;100749.88;5012408;28;20544;-52
2022/02/05 04:41:48;;;;;;;0.20;0.10;;;;;;;3.96;100.00;100760.41;5004119;28;20556;-52
2022/02/05 04:52:50;;;;;;;0.20;0.10;;;;;;;3.97;100.00;100757.78;5007796;28;20587;-52
2022/02/05 04:58:28;;;;;;;0.20;0.10;;;;;;;3.79;100.00;100755.94;5004835;28;20533;-52
2022/02/05 05:04:02;;;;;;;0.20;0.10;;;;;;;3.68;100.00;100764.59;5007910;28;20818;-52
2022/02/05 05:21:49;;;;;;;0.20;0.10;;;;;;;3.10;100.00;100757.13;4994101;28;20497;-52
2022/02/05 05:24:16;;;;;;;0.20;0.10;;;;;;;3.38;100.00;100763.50;5007854;28;20870;-52
2022/02/05 05:26:42;;;;;;;0.20;0.10;;;;;;;3.20;100.00;100759.00;5006523;28;20979;-52
2022/02/05 05:29:09;;;;;;;0.20;0.10;;;;;;;3.15;100.00;100760.72;5007832;28;20453;-52
2022/02/05 05:31:36;;;;;;;0.20;0.20;;;;;;;3.02;100.00;100758.84;5006629;28;20556;-51
2022/02/05 05:34:02;;;;;;;0.20;0.10;;;;;;;3.10;100.00;100765.00;5007093;28;20501;-51
2022/02/05 05:36:29;;;;;;;0.20;0.20;;;;;;;3.04;100.00;100772.84;5001806;28;20503;-51
2022/02/05 05:39:01;;;;;;;0.20;0.10;;;;;;;3.13;100.00;100770.28;5013746;28;20491;-51
2022/02/05 05:41:34;;;;;;;0.20;0.10;;;;;;;3.21;100.00;100776.50;5002108;28;20548;-51
2022/02/05 05:44:19;;;;;;;0.20;0.13;;;;;;;3.19;100.00;100780.88;5000338;28;20535;-51
2022/02/05 05:46:49;;;;;;;2.43;2.33;;;;;;;3.31;100.00;100769.59;5002900;28;20449;-51
2022/02/05 05:49:44;;;;;;;0.20;0.10;;;;;;;3.00;100.00;100780.66;5007675;28;20461;-51
2022/02/05 05:52:03;;;;;;;0.20;0.10;;;;;;;3.23;100.00;100779.16;4995261;28;20478;-51
2022/02/05 05:54:29;;;;;;;0.20;0.10;;;;;;;3.15;100.00;100773.84;5006076;28;20825;-51
2022/02/05 05:56:56;;;;;;;0.20;0.10;;;;;;;3.41;100.00;100783.66;5006795;28;20942;-51
2022/02/05 05:59:23;;;;;;;0.20;0.10;;;;;;;3.36;100.00;100790.63;5002392;28;20539;-51
2022/02/05 06:01:49;;;;;;;0.20;0.10;;;;;;;3.43;100.00;100795.09;5000219;28;20501;-51
2022/02/05 06:04:16;;;;;;;0.20;0.10;;;;;;;3.47;100.00;100796.88;5005322;28;20989;-51
2022/02/05 06:06:42;;;;;;;0.20;0.10;;;;;;;3.55;100.00;100795.16;5006603;28;20551;-51
2022/02/05 06:09:09;;;;;;;0.20;0.10;;;;;;;3.70;100.00;100803.19;5001777;28;20488;-51
2022/02/05 06:11:36;;;;;;;0.20;0.10;;;;;;;3.76;100.00;100804.97;4998534;28;20512;-51
2022/02/05 06:14:02;;;;;;;0.20;0.10;;;;;;;3.54;100.00;100809.19;5005259;28;20547;-51
2022/02/05 06:16:32;;;;;;;0.20;0.10;;;;;;;3.65;100.00;100811.91;5006832;28;20535;-51
2022/02/05 06:18:59;;;;;;;0.20;0.10;;;;;;;3.72;100.00;100806.72;5002614;28;20488;-51
2022/02/05 06:21:25;;;;;;;0.20;0.10;;;;;;;3.74;100.00;100802.34;5003652;28;20516;-51
2022/02/05 06:23:52;;;;;;;0.20;0.17;;;;;;;3.48;100.00;100807.41;5008117;28;20445;-51
2022/02/05 06:26:18;;;;;;;0.20;0.10;;;;;;;3.59;100.00;100809.25;5010322;28;20821;-51
2022/02/05 06:28:45;;;;;;;0.20;0.10;;;;;;;3.61;100.00;100816.25;5006655;28;20543;-51
2022/02/05 06:31:12;;;;;;;0.20;0.13;;;;;;;3.42;100.00;100817.84;5012818;28;21017;-51
2022/02/05 06:33:39;;;;;;;0.20;0.20;;;;;;;3.64;100.00;100815.41;5008188;28;20488;-51
2022/02/05 06:36:05;;;;;;;0.20;0.10;;;;;;;3.62;100.00;100823.28;5003519;28;20491;-51
2022/02/05 06:38:32;;;;;;;0.20;0.10;;;;;;;3.58;100.00;100824.13;5016711;28;20520;-51
2022/02/05 06:40:59;;;;;;;0.30;0.30;;;;;;;3.53;100.00;100833.69;5003614;28;20550;-51
2022/02/05 06:43:25;;;;;;;0.20;0.10;;;;;;;3.62;100.00;100843.44;5005038;28;20544;-51
2022/02/05 06:45:52;;;;;;;0.20;0.10;;;;;;;3.40;100.00;100842.34;5009816;28;20488;-51
2022/02/05 06:48:18;;;;;;;0.20;0.10;;;;;;;3.54;100.00;100849.47;5008655;28;20484;-51
2022/02/05 06:50:45;;;;;;;0.20;0.10;;;;;;;3.50;100.00;100852.97;5002913;28;20481;-51
2022/02/05 06:53:12;;;;;;;0.20;0.10;;;;;;;3.59;100.00;100856.53;5004601;28;20493;-51
2022/02/05 06:55:38;;;;;;;0.20;0.10;;;;;;;3.54;100.00;100853.84;5010343;28;20516;-51
2022/02/05 06:58:05;;;;;;;0.20;0.10;;;;;;;3.44;100.00;100849.41;5008864;28;20488;-51
2022/02/05 07:00:31;;;;;;;0.20;0.20;;;;;;;3.37;100.00;100858.09;5002915;28;20511;-51
2022/02/05 07:02:58;;;;;;;0.20;0.10;;;;;;;3.46;100.00;100855.56;5004286;28;20519;-51
2022/02/05 07:05:25;;;;;;;0.20;0.10;;;;;;;3.51;100.00;100862.59;5009938;28;20450;-51
2022/02/05 07:07:53;;;;;;;0.20;0.10;;;;;;;3.38;100.00;100852.84;5009156;28;20487;-51
2022/02/05 07:10:19;;;;;;;0.20;0.10;;;;;;;3.36;100.00;100859.84;5002853;28;20564;-51
2022/02/05 07:13:02;;;;;;;0.20;0.10;;;;;;;3.55;100.00;100860.88;5003723;28;20516;-51
2022/02/05 07:15:33;;;;;;;0.20;0.10;;;;;;;3.32;100.00;100859.78;5005368;28;20460;-51
2022/02/05 07:20:42;;;;;;;0.20;0.10;;;;;;;3.30;100.00;100872.91;5005543;28;20917;-51
2022/02/05 07:23:35;;;;;;;0.20;0.10;;;;;;;3.48;100.00;100869.59;5003018;28;20531;-51
2022/02/05 07:31:30;;;;;;;0.20;0.10;;;;;;;3.37;100.00;100864.22;5001329;28;20555;-51
2022/02/05 07:34:00;;;;;;;0.20;0.13;;;;;;;3.51;100.00;100865.22;5002913;28;20529;-52
2022/02/05 07:36:27;;;;;;;0.20;0.10;;;;;;;3.51;100.00;100875.75;5003374;28;20544;-51
2022/02/05 07:38:53;;;;;;;0.20;0.10;;;;;;;3.56;100.00;100883.66;5003071;28;20481;-51
2022/02/05 07:41:20;;;;;;;0.20;0.10;;;;;;;3.58;100.00;100881.94;5009382;28;20560;-51
2022/02/05 07:43:47;;;;;;;0.20;0.10;;;;;;;3.77;100.00;100875.09;4997334;28;20445;-52
2022/02/05 07:46:14;;;;;;;0.20;0.10;;;;;;;3.72;100.00;100882.06;5008214;28;20891;-51
2022/02/05 07:48:40;;;;;;;0.20;0.10;;;;;;;3.88;100.00;100885.72;5009072;28;21028;-51
2022/02/05 07:51:08;;;;;;;0.20;0.10;;;;;;;3.90;100.00;100886.59;5003691;28;21005;-51
2022/02/05 07:53:35;;;;;;;0.20;0.10;;;;;;;3.97;100.00;100883.13;5002172;28;20576;-51
2022/02/05 07:56:03;;;;;;;0.20;0.10;;;;;;;4.01;100.00;100892.84;5007202;28;20508;-50
2022/02/05 07:58:31;;;;;;;0.20;0.10;;;;;;;4.10;100.00;100892.88;4998065;28;20480;-52
2022/02/05 08:00:58;;;;;;;0.20;0.10;;;;;;;4.01;100.00;100896.34;5006208;28;20473;-52
2022/02/05 08:03:24;;;;;;;0.20;0.10;;;;;;;4.02;100.00;100899.84;5006579;28;20460;-51
2022/02/05 08:05:51;;;;;;;0.40;0.40;;;;;;;4.31;100.00;100900.06;5013006;28;20544;-51
2022/02/05 08:08:22;;;;;;;0.20;0.10;;;;;;;4.16;100.00;100895.56;5013891;28;20487;-52
2022/02/05 08:10:57;;;;;;;0.20;0.10;;;;;;;4.15;100.00;100893.81;5005238;28;20516;-51
2022/02/05 08:13:27;;;;;;;0.20;0.10;;;;;;;4.25;100.00;100897.38;5008892;28;20580;-51
2022/02/05 08:15:58;;;;;;;0.20;0.10;;;;;;;4.23;100.00;100897.34;5007263;28;20449;-51
2022/02/05 08:18:24;;;;;;;0.20;0.10;;;;;;;4.26;100.00;100902.66;5001639;28;20476;-51
2022/02/05 08:20:51;;;;;;;0.20;0.20;;;;;;;4.16;100.00;100906.97;5001862;28;20501;-51
2022/02/05 08:23:17;;;;;;;0.20;0.10;;;;;;;4.36;100.00;100907.09;5007967;28;20473;-51
2022/02/05 08:25:44;;;;;;;0.20;0.10;;;;;;;4.67;100.00;100902.91;5007088;28;20457;-52
2022/02/05 08:28:11;;;;;;;0.20;0.10;;;;;;;4.43;100.00;100921.19;5001157;28;20460;-52
2022/02/05 08:30:37;;;;;;;0.20;0.10;;;;;;;4.37;100.00;100910.59;5014651;28;20500;-51
2022/02/05 08:33:04;;;;;;;0.20;0.10;;;;;;;4.31;100.00;100910.59;5008288;28;20485;-52
2022/02/05 08:35:31;;;;;;;0.20;0.10;;;;;;;4.42;100.00;100915.06;5007800;28;20480;-51
2022/02/05 08:38:00;;;;;;;0.20;0.10;;;;;;;4.64;100.00;100925.69;5011123;28;20487;-52
2022/02/05 08:40:27;;;;;;;0.90;0.90;;;;;;;4.59;100.00;100923.03;5001210;28;20870;-52
2022/02/05 08:42:54;;;;;;;0.30;0.20;;;;;;;4.54;100.00;100921.28;5007542;28;20975;-51
2022/02/05 08:45:20;;;;;;;0.20;0.10;;;;;;;4.55;100.00;100920.41;5023683;28;20872;-52
2022/02/05 08:47:47;;;;;;;0.20;0.10;;;;;;;4.54;100.00;100922.16;5007015;28;20551;-51
2022/02/05 08:50:14;;;;;;;0.20;0.10;;;;;;;4.64;100.00;100928.31;5006343;28;20504;-52
2022/02/05 08:52:41;;;;;;;0.20;0.10;;;;;;;4.68;100.00;100931.00;5001872;28;20484;-52
2022/02/05 08:55:08;;;;;;;0.20;0.20;;;;;;;4.61;100.00;100928.31;5000954;28;20512;-52
2022/02/05 08:57:35;;;;;;;0.20;0.10;;;;;;;4.70;100.00;100936.28;5006408;28;20485;-52
2022/02/05 09:00:09;;;;;;;0.20;0.10;;;;;;;4.83;100.00;100935.47;5007223;28;20452;-52
2022/02/05 09:05:32;;;;;;;0.20;0.13;;;;;;;5.10;100.00;100945.25;5000609;28;20441;-51
2022/02/05 09:07:59;;;;;;;0.20;0.17;;;;;;;5.18;100.00;100943.50;5000353;28;20481;-52
2022/02/05 09:10:34;;;;;;;0.20;0.10;;;;;;;5.22;100.00;100945.31;5006287;28;20508;-52
2022/02/05 09:15:34;;;;;;;0.20;0.10;;;;;;;5.47;100.00;100951.53;5003161;28;20451;-52
2022/02/05 09:18:01;;;;;;;0.20;0.10;;;;;;;5.49;100.00;100957.69;4999879;28;20477;-51
2022/02/05 09:20:27;;;;;;;0.20;0.10;;;;;;;5.88;98.94;100969.19;5003214;28;20588;-52
2022/02/05 09:22:55;;;;;;;0.20;0.10;;;;;;;5.73;99.58;100971.81;5006961;28;20533;-51
2022/02/05 09:25:22;;;;;;;0.20;0.13;;;;;;;5.61;99.12;100973.53;5003983;28;20535;-52
2022/02/05 09:27:51;;;;;;;0.33;0.33;;;;;;;5.73;99.54;100979.72;5000046;28;21011;-52
2022/02/05 09:30:28;;;;;;;0.20;0.10;;;;;;;5.93;98.67;100978.94;5013444;28;20523;-51
2022/02/05 09:32:54;;;;;;;0.20;0.10;;;;;;;5.91;97.01;100977.16;4999683;28;20563;-52
2022/02/05 09:35:21;;;;;;;0.20;0.10;;;;;;;6.01;97.32;100981.56;5001300;28;20509;-51
2022/02/05 09:37:48;;;;;;;0.20;0.10;;;;;;;6.06;97.98;100985.09;5010802;28;20514;-52
2022/02/05 09:40:16;;;;;;;0.20;0.10;;;;;;;6.17;98.05;100980.72;5000936;28;20527;-52
2022/02/05 09:42:46;;;;;;;0.20;0.10;;;;;;;6.31;97.23;100985.13;5005974;28;20577;-52
2022/02/05 09:45:14;;;;;;;0.20;0.20;;;;;;;6.17;98.12;100986.00;5005478;28;20561;-52
2022/02/05 09:47:45;;;;;;;0.20;0.20;;;;;;;6.26;95.89;100989.50;4999829;28;20456;-52
2022/02/05 09:50:12;;;;;;;0.20;0.10;;;;;;;6.17;97.24;100988.63;4999009;28;20564;-52
2022/02/05 09:52:40;;;;;;;0.20;0.10;;;;;;;6.47;97.16;100984.22;5005789;28;20453;-52
2022/02/05 09:55:10;;;;;;;0.20;0.20;;;;;;;6.64;95.64;100979.78;5005431;28;20532;-52
2022/02/05 09:57:37;;;;;;;0.20;0.10;;;;;;;6.71;94.95;100981.53;5000986;28;20539;-52
2022/02/05 10:00:04;;;;;;;0.20;0.20;;;;;;;6.58;94.63;100987.75;4998946;28;20489;-52
2022/02/05 10:02:35;;;;;;;0.30;0.20;;;;;;;6.49;94.28;100990.38;5004262;28;20507;-52
2022/02/05 10:05:08;;;;;;;0.20;0.10;;;;;;;6.44;94.98;100986.84;5006155;28;20445;-52
2022/02/05 10:08:06;;;;;;;0.20;0.20;;;;;;;6.40;94.99;100993.00;5004190;28;20445;-52
2022/02/05 10:10:38;;;;;;;0.20;0.10;;;;;;;6.66;95.00;100993.88;5000152;28;20464;-52
2022/02/05 10:13:07;;;;;;;0.20;0.10;;;;;;;6.73;94.52;100994.75;4998893;28;20528;-52
2022/02/05 10:15:36;;;;;;;0.73;0.73;;;;;;;6.81;93.37;100987.69;5003499;28;20966;-52
2022/02/05 10:18:03;;;;;;;0.20;0.10;;;;;;;6.91;93.95;100989.44;5005775;28;20535;-52
2022/02/05 10:20:31;;;;;;;0.20;0.20;;;;;;;6.91;92.61;100983.28;5001487;28;20521;-52
2022/02/05 10:23:10;;;;;;;0.20;0.20;;;;;;;7.00;92.97;100980.63;4998783;28;20449;-51
2022/02/05 10:25:38;;;;;;;0.20;0.20;;;;;;;6.97;92.98;100981.47;5001401;28;20500;-52
2022/02/05 10:28:10;;;;;;;0.20;0.20;;;;;;;7.04;91.49;100982.34;5006087;28;20446;-52
2022/02/05 10:30:42;;;;;;;0.20;0.20;;;;;;;7.28;91.21;100976.09;5009219;28;20531;-52
2022/02/05 10:33:23;;;;;;;0.30;0.20;;;;;;;7.28;90.84;100982.28;4999025;28;20544;-52
2022/02/05 10:36:24;;;;;;;0.20;0.17;;;;;;;7.57;89.84;100971.56;4998992;28;20500;-52
2022/02/05 10:39:12;;;;;;;0.20;0.10;;;;;;;7.50;90.14;100979.50;5005824;28;20447;-52
2022/02/05 10:44:28;;;;;;;0.20;0.20;;;;;;;7.29;91.02;100975.22;4998689;28;20472;-52
2022/02/05 10:46:56;;;;;;;0.20;0.10;;;;;;;7.12;90.43;100981.44;5013773;28;20844;-52
2022/02/05 10:49:49;;;;;;;0.20;0.20;;;;;;;7.12;91.65;100976.13;5005136;28;20457;-51
2022/02/05 10:52:35;;;;;;;0.20;0.20;;;;;;;7.37;92.15;100976.94;5005347;28;21031;-52
2022/02/05 10:55:16;;;;;;;0.20;0.20;;;;;;;7.32;90.60;100975.19;5005100;28;20570;-52
2022/02/05 11:05:51;;;;;;;0.30;0.20;;;;;;;7.97;90.53;100958.06;5000230;28;20448;-53
2022/02/05 11:08:19;;;;;;;0.20;0.20;;;;;;;8.07;90.00;100961.50;5004010;28;20555;-52
2022/02/05 11:21:15;;;;;;;0.30;0.20;;;;;;;7.93;89.76;100954.56;5006876;28;20508;-52
2022/02/05 11:23:47;;;;;;;0.30;0.20;;;;;;;7.74;89.83;100945.00;5006547;28;20536;-51
2022/02/05 11:26:14;;;;;;;0.30;0.20;;;;;;;7.62;90.52;100953.88;5008498;28;20908;-51
2022/02/05 11:28:51;;;;;;;0.20;0.20;;;;;;;7.77;91.92;100957.31;5019927;28;20535;-51
2022/02/05 11:31:31;;;;;;;0.27;0.10;;;;;;;8.06;91.06;100957.09;5010234;28;21069;-52
2022/02/05 11:34:23;;;;;;;0.30;0.20;;;;;;;8.32;89.48;100953.38;5008045;28;20530;-51
2022/02/05 11:37:08;;;;;;;0.30;0.20;;;;;;;8.61;89.05;100961.06;5006014;28;20857;-53
2022/02/05 11:39:49;;;;;;;0.30;0.20;;;;;;;8.40;88.09;100955.13;5008915;28;20485;-53
2022/02/05 11:42:29;;;;;;;0.30;0.20;;;;;;;8.31;89.00;100959.56;5008312;28;20523;-53
2022/02/05 11:44:58;;;;;;;0.20;0.10;;;;;;;8.31;87.91;100953.38;5004557;28;20480;-53
2022/02/05 11:47:27;;;;;;;0.30;0.20;;;;;;;8.40;89.19;100945.41;5001651;28;20487;-54
2022/02/05 11:49:55;;;;;;;0.30;0.20;;;;;;;8.34;88.41;100942.78;5003916;28;20511;-53
2022/02/05 11:52:37;;;;;;;0.30;0.20;;;;;;;8.30;88.68;100941.03;5007821;28;20469;-54
2022/02/05 11:55:04;;;;;;;0.30;0.20;;;;;;;8.42;88.27;100948.91;5007819;28;20529;-53
2022/02/05 11:57:46;;;;;;;0.30;0.20;;;;;;;8.26;89.63;100936.66;5007886;28;20480;-53
2022/02/05 12:00:24;;;;;;;0.30;0.10;;;;;;;8.37;90.79;100944.56;5007491;28;20468;-54
2022/02/05 12:03:03;;;;;;;0.30;0.20;;;;;;;8.30;88.40;100941.91;5004817;28;20958;-53
2022/02/05 12:05:36;;;;;;;0.30;0.20;;;;;;;8.25;89.31;100938.44;5001444;28;20483;-53
2022/02/05 12:08:05;;;;;;;0.30;0.20;;;;;;;8.21;88.28;100951.69;5001592;28;20481;-54
2022/02/05 12:10:41;;;;;;;0.30;0.10;;;;;;;8.60;88.01;100937.25;5002334;28;20472;-53
2022/02/05 12:13:21;;;;;;;0.30;0.20;;;;;;;8.87;87.68;100934.28;5001079;28;20544;-54
2022/02/05 12:16:11;;;;;;;0.30;0.20;;;;;;;8.85;88.00;100943.16;5004293;28;20529;-54
2022/02/05 12:19:12;;;;;;;0.30;0.20;;;;;;;8.84;88.19;100933.47;5000604;28;20551;-53
2022/02/05 12:22:12;;;;;;;0.30;0.20;;;;;;;8.98;87.35;100941.25;5000713;28;20505;-53
2022/02/05 12:25:16;;;;;;;0.30;0.20;;;;;;;8.98;86.50;100926.22;4985606;28;20453;-52
2022/02/05 12:27:45;;;;;;;0.30;0.20;;;;;;;8.97;87.07;100927.13;5000541;28;20485;-53
2022/02/05 12:30:43;;;;;;;0.30;0.20;;;;;;;8.94;86.15;100915.69;5013580;28;20903;-54
2022/02/05 12:33:09;;;;;;;0.30;0.20;;;;;;;9.00;85.80;100915.59;4988966;28;20456;-53
2022/02/05 12:35:48;;;;;;;0.30;0.20;;;;;;;8.92;85.68;100920.13;5000584;28;20536;-52
2022/02/05 12:38:14;;;;;;;0.30;0.20;;;;;;;8.59;87.16;100915.16;5013838;28;20559;-53
2022/02/05 12:40:49;;;;;;;0.30;0.20;;;;;;;8.30;87.70;100915.41;5002096;28;20504;-53
2022/02/05 12:43:19;;;;;;;0.30;0.20;;;;;;;8.64;87.94;100912.50;5002127;28;20484;-54
2022/02/05 12:46:08;;;;;;;0.30;0.20;;;;;;;8.85;88.07;100903.41;5008455;28;20481;-54
2022/02/05 12:48:35;;;;;;;0.30;0.20;;;;;;;8.75;88.79;100907.91;5007229;28;20543;-53
2022/02/05 12:51:03;;;;;;;0.30;0.20;;;;;;;8.68;86.85;100906.25;5000818;28;20487;-54
2022/02/05 12:53:33;;;;;;;0.30;0.20;;;;;;;8.81;86.82;100910.53;5000339;28;20888;-54
2022/02/05 12:56:15;;;;;;;0.30;0.20;;;;;;;8.56;85.93;100909.91;5006270;28;20584;-53
2022/02/05 12:59:04;;;;;;;0.30;0.20;;;;;;;8.52;87.66;100913.50;5009291;28;20937;-53
2022/02/05 13:01:32;;;;;;;0.63;0.60;;;;;;;8.36;89.16;100911.88;5001067;28;20466;-53
2022/02/05 13:04:12;;;;;;;0.30;0.20;;;;;;;8.52;89.42;100908.19;5000185;28;20460;-53
2022/02/05 13:06:39;;;;;;;0.20;0.20;;;;;;;8.25;91.80;100905.78;4998655;28;20556;-53
2022/02/05 13:09:20;;;;;;;0.30;0.17;;;;;;;8.14;91.79;100915.56;5005335;28;20493;-53
2022/02/05 13:12:06;;;;;;;0.30;0.20;;;;;;;8.08;92.45;100913.84;5006060;28;20556;-53
2022/02/05 13:14:40;;;;;;;0.20;0.13;;;;;;;8.05;92.14;100911.22;4997081;28;20521;-52
2022/02/05 13:17:20;;;;;;;0.30;0.20;;;;;;;7.98;92.83;100899.81;5001592;28;20512;-53
2022/02/05 13:24:43;;;;;;;0.30;0.20;;;;;;;7.82;93.35;100907.91;5000832;28;20543;-54
2022/02/05 13:36:17;;;;;;;0.20;0.10;;;;;;;7.70;91.21;100907.09;5006941;28;20485;-54
2022/02/05 13:41:46;;;;;;;0.23;0.20;;;;;;;7.68;91.55;100895.66;5002932;28;20519;-53
2022/02/05 13:44:17;;;;;;;0.30;0.20;;;;;;;7.85;91.24;100895.50;5000307;28;20444;-53
2022/02/05 13:47:02;;;;;;;0.30;0.20;;;;;;;7.75;90.84;100907.06;5002226;28;20445;-52
2022/02/05 13:49:29;;;;;;;0.20;0.10;;;;;;;7.61;90.32;100911.56;5001165;28;20491;-53
2022/02/05 13:52:05;;;;;;;0.43;0.43;;;;;;;7.75;90.99;100912.34;5009177;28;21021;-53
2022/02/05 13:54:36;;;;;;;0.20;0.20;;;;;;;7.67;90.62;100907.09;5004649;28;20551;-54
2022/02/05 13:57:03;;;;;;;0.20;0.10;;;;;;;7.60;90.19;100910.69;5000081;28;20986;-53
2022/02/05 13:59:32;;;;;;;0.20;0.10;;;;;;;7.40;90.57;100899.34;5004297;28;20484;-53
2022/02/05 14:02:20;;;;;;;0.30;0.20;;;;;;;7.27;91.12;100910.91;5007734;28;20527;-53
2022/02/05 14:05:09;;;;;;;0.30;0.20;;;;;;;7.27;91.15;100909.13;4995871;28;20533;-53
2022/02/05 14:07:47;;;;;;;0.30;0.20;;;;;;;7.54;91.33;100897.50;5003943;28;20489;-53
2022/02/05 14:10:18;;;;;;;0.20;0.20;;;;;;;7.45;91.20;100897.56;4997175;28;20982;-53
2022/02/05 14:12:48;;;;;;;0.30;0.20;;;;;;;7.39;89.40;100903.75;4996686;28;20477;-53
2022/02/05 14:15:15;;;;;;;0.20;0.20;;;;;;;7.40;90.47;100915.19;5011228;28;20523;-53
2022/02/05 14:17:41;;;;;;;0.30;0.20;;;;;;;7.37;88.73;100910.81;5000849;28;20507;-54
2022/02/05 14:20:10;;;;;;;0.20;0.10;;;;;;;7.37;89.30;100900.22;5005927;28;20492;-53
2022/02/05 14:22:39;;;;;;;0.20;0.20;;;;;;;7.26;88.85;100904.69;5006114;28;20890;-53
2022/02/05 14:25:32;;;;;;;0.20;0.13;;;;;;;7.17;87.84;100903.88;5006955;28;20488;-53
2022/02/05 14:28:10;;;;;;;0.20;0.10;;;;;;;7.00;90.31;100896.03;4998599;28;20503;-54
2022/02/05 14:30:40;;;;;;;0.30;0.20;;;;;;;7.19;90.73;100905.63;5013057;28;20495;-53
2022/02/05 14:33:12;;;;;;;0.20;0.10;;;;;;;7.29;89.58;100893.25;5000414;28;20456;-54
2022/02/05 14:40:50;;;;;;;0.20;0.10;;;;;;;7.62;88.75;100882.44;5004230;28;21075;-53